METAR Data
IDs: Format: Raw Decoded Include TAF

Data at: 1858 UTC 12 Dec 2018

METAR for:KHAO (Hamilton/Butler Cnty, OH, US)
Text:KHAO 121853Z AUTO 20009G16KT 10SM OVC060 08/M02 A2991 RMK AO2 SLP134 T00831017
Temperature: 8.3°C ( 47°F)
Dewpoint: -1.7°C ( 29°F) [RH = 49%]
Pressure (altimeter):29.91 inches Hg (1013.0 mb) [Sea level pressure: 1013.4 mb]
Winds:from the SSW (200 degrees) at 10 MPH (9 knots; 4.6 m/s) gusting to 18 MPH (16 knots; 8.2 m/s)
Visibility:10 or more sm (16+ km)
Ceiling:6000 feet AGL
Clouds: overcast cloud deck at 6000 feet AGL
QC Flag:automated observation with no human augmentation